sensor_id;sensor_type;location;lat;lon;timestamp;temperature;humidity
5940;DHT22;2995;-31.998;115.906;2022-08-19T00:00:18;12.00;99.90
5940;DHT22;2995;-31.998;115.906;2022-08-19T00:02:50;12.00;99.90
5940;DHT22;2995;-31.998;115.906;2022-08-19T00:05:22;12.20;99.90
5940;DHT22;2995;-31.998;115.906;2022-08-19T00:07:55;12.10;99.90
5940;DHT22;2995;-31.998;115.906;2022-08-19T00:10:27;12.10;99.90
5940;DHT22;2995;-31.998;115.906;2022-08-19T00:12:58;12.10;99.90
5940;DHT22;2995;-31.998;115.906;2022-08-19T00:15:29;12.20;99.90
5940;DHT22;2995;-31.998;115.906;2022-08-19T00:18:01;12.20;99.90
5940;DHT22;2995;-31.998;115.906;2022-08-19T00:20:32;12.30;99.90
5940;DHT22;2995;-31.998;115.906;2022-08-19T00:23:05;12.40;99.90
5940;DHT22;2995;-31.998;115.906;2022-08-19T00:25:37;12.40;99.90
5940;DHT22;2995;-31.998;115.906;2022-08-19T00:28:08;12.40;99.90
5940;DHT22;2995;-31.998;115.906;2022-08-19T00:30:40;12.40;99.90
5940;DHT22;2995;-31.998;115.906;2022-08-19T00:33:11;12.50;99.90
5940;DHT22;2995;-31.998;115.906;2022-08-19T00:35:44;12.60;99.90
5940;DHT22;2995;-31.998;115.906;2022-08-19T00:38:17;12.60;99.90
5940;DHT22;2995;-31.998;115.906;2022-08-19T00:40:50;12.60;99.90
5940;DHT22;2995;-31.998;115.906;2022-08-19T00:43:24;12.60;99.90
5940;DHT22;2995;-31.998;115.906;2022-08-19T00:45:56;12.70;99.90
5940;DHT22;2995;-31.998;115.906;2022-08-19T00:48:27;12.70;99.90
5940;DHT22;2995;-31.998;115.906;2022-08-19T00:50:58;12.70;99.90
5940;DHT22;2995;-31.998;115.906;2022-08-19T00:53:33;12.70;99.90
5940;DHT22;2995;-31.998;115.906;2022-08-19T00:56:04;12.70;99.90
5940;DHT22;2995;-31.998;115.906;2022-08-19T00:58:37;12.70;99.90
5940;DHT22;2995;-31.998;115.906;2022-08-19T01:01:08;12.70;99.90
5940;DHT22;2995;-31.998;115.906;2022-08-19T01:03:40;12.70;99.90
5940;DHT22;2995;-31.998;115.906;2022-08-19T01:06:11;12.70;99.90
5940;DHT22;2995;-31.998;115.906;2022-08-19T01:08:44;12.80;99.90
5940;DHT22;2995;-31.998;115.906;2022-08-19T01:11:16;12.80;99.90
5940;DHT22;2995;-31.998;115.906;2022-08-19T01:13:47;12.80;99.90
5940;DHT22;2995;-31.998;115.906;2022-08-19T01:16:21;12.90;99.90
5940;DHT22;2995;-31.998;115.906;2022-08-19T01:18:53;13.00;99.90
5940;DHT22;2995;-31.998;115.906;2022-08-19T01:21:28;13.10;99.90
5940;DHT22;2995;-31.998;115.906;2022-08-19T01:24:03;13.10;99.90
5940;DHT22;2995;-31.998;115.906;2022-08-19T01:26:39;13.20;99.90
5940;DHT22;2995;-31.998;115.906;2022-08-19T01:29:12;13.20;99.90
5940;DHT22;2995;-31.998;115.906;2022-08-19T01:31:43;13.30;99.90
5940;DHT22;2995;-31.998;115.906;2022-08-19T01:34:14;13.40;99.90
5940;DHT22;2995;-31.998;115.906;2022-08-19T01:36:46;13.40;99.90
5940;DHT22;2995;-31.998;115.906;2022-08-19T01:39:22;13.50;99.90
5940;DHT22;2995;-31.998;115.906;2022-08-19T01:41:53;13.60;99.90
5940;DHT22;2995;-31.998;115.906;2022-08-19T01:44:24;13.70;99.90
5940;DHT22;2995;-31.998;115.906;2022-08-19T01:46:56;13.80;99.90
5940;DHT22;2995;-31.998;115.906;2022-08-19T01:49:27;13.80;99.90
5940;DHT22;2995;-31.998;115.906;2022-08-19T01:52:00;14.00;99.90
5940;DHT22;2995;-31.998;115.906;2022-08-19T01:54:34;14.10;99.90
5940;DHT22;2995;-31.998;115.906;2022-08-19T01:57:07;14.20;99.90
5940;DHT22;2995;-31.998;115.906;2022-08-19T01:59:40;14.30;99.90
5940;DHT22;2995;-31.998;115.906;2022-08-19T02:02:12;14.40;99.90
5940;DHT22;2995;-31.998;115.906;2022-08-19T02:04:43;14.50;99.90
5940;DHT22;2995;-31.998;115.906;2022-08-19T02:07:15;14.60;99.90
5940;DHT22;2995;-31.998;115.906;2022-08-19T02:09:48;14.80;99.90
5940;DHT22;2995;-31.998;115.906;2022-08-19T02:12:20;15.00;99.90
5940;DHT22;2995;-31.998;115.906;2022-08-19T02:14:51;15.00;99.90
5940;DHT22;2995;-31.998;115.906;2022-08-19T02:17:23;15.10;99.90
5940;DHT22;2995;-31.998;115.906;2022-08-19T02:19:54;15.10;99.90
5940;DHT22;2995;-31.998;115.906;2022-08-19T02:22:25;15.20;99.90
5940;DHT22;2995;-31.998;115.906;2022-08-19T02:24:59;15.30;99.90
5940;DHT22;2995;-31.998;115.906;2022-08-19T02:27:30;15.30;99.90
5940;DHT22;2995;-31.998;115.906;2022-08-19T02:30:01;15.40;99.90
5940;DHT22;2995;-31.998;115.906;2022-08-19T02:32:33;15.50;99.90
5940;DHT22;2995;-31.998;115.906;2022-08-19T02:35:05;15.50;99.90
5940;DHT22;2995;-31.998;115.906;2022-08-19T02:37:36;15.60;99.90
5940;DHT22;2995;-31.998;115.906;2022-08-19T02:40:25;15.60;99.90
5940;DHT22;2995;-31.998;115.906;2022-08-19T02:42:56;15.60;99.90
5940;DHT22;2995;-31.998;115.906;2022-08-19T02:45:30;15.60;99.90
5940;DHT22;2995;-31.998;115.906;2022-08-19T02:48:02;15.60;99.90
5940;DHT22;2995;-31.998;115.906;2022-08-19T02:50:33;15.60;99.90
5940;DHT22;2995;-31.998;115.906;2022-08-19T02:53:07;15.60;99.90
5940;DHT22;2995;-31.998;115.906;2022-08-19T02:55:46;15.60;99.90
5940;DHT22;2995;-31.998;115.906;2022-08-19T02:58:18;15.70;99.90
5940;DHT22;2995;-31.998;115.906;2022-08-19T03:00:53;15.60;99.90
5940;DHT22;2995;-31.998;115.906;2022-08-19T03:03:25;15.80;99.90
5940;DHT22;2995;-31.998;115.906;2022-08-19T03:06:11;15.90;99.90
5940;DHT22;2995;-31.998;115.906;2022-08-19T03:08:43;15.90;99.90
5940;DHT22;2995;-31.998;115.906;2022-08-19T03:11:18;15.90;99.90
5940;DHT22;2995;-31.998;115.906;2022-08-19T03:13:50;15.90;99.90
5940;DHT22;2995;-31.998;115.906;2022-08-19T03:16:23;15.80;99.90
5940;DHT22;2995;-31.998;115.906;2022-08-19T03:18:57;15.80;99.90
5940;DHT22;2995;-31.998;115.906;2022-08-19T03:21:31;15.90;99.90
5940;DHT22;2995;-31.998;115.906;2022-08-19T03:24:05;16.10;99.90
5940;DHT22;2995;-31.998;115.906;2022-08-19T03:26:43;16.20;99.90
5940;DHT22;2995;-31.998;115.906;2022-08-19T03:29:15;16.30;99.90
5940;DHT22;2995;-31.998;115.906;2022-08-19T03:31:47;16.40;99.90
5940;DHT22;2995;-31.998;115.906;2022-08-19T03:34:21;16.50;99.90
5940;DHT22;2995;-31.998;115.906;2022-08-19T03:36:54;16.60;99.90
5940;DHT22;2995;-31.998;115.906;2022-08-19T03:39:26;16.70;99.90
5940;DHT22;2995;-31.998;115.906;2022-08-19T03:42:01;16.80;99.90
5940;DHT22;2995;-31.998;115.906;2022-08-19T03:44:33;16.80;99.90
5940;DHT22;2995;-31.998;115.906;2022-08-19T03:47:05;16.90;99.90
5940;DHT22;2995;-31.998;115.906;2022-08-19T03:49:37;16.90;99.90
5940;DHT22;2995;-31.998;115.906;2022-08-19T03:52:08;17.00;99.90
5940;DHT22;2995;-31.998;115.906;2022-08-19T03:54:39;17.00;99.90
5940;DHT22;2995;-31.998;115.906;2022-08-19T03:57:13;17.00;99.90
5940;DHT22;2995;-31.998;115.906;2022-08-19T03:59:44;17.00;99.90
5940;DHT22;2995;-31.998;115.906;2022-08-19T04:02:15;17.00;99.90
5940;DHT22;2995;-31.998;115.906;2022-08-19T04:04:46;17.00;99.90
5940;DHT22;2995;-31.998;115.906;2022-08-19T04:07:18;16.90;99.90
5940;DHT22;2995;-31.998;115.906;2022-08-19T04:09:49;17.00;99.90
5940;DHT22;2995;-31.998;115.906;2022-08-19T04:12:23;17.10;99.90
5940;DHT22;2995;-31.998;115.906;2022-08-19T04:14:55;17.10;99.90
5940;DHT22;2995;-31.998;115.906;2022-08-19T04:17:26;17.20;99.90
5940;DHT22;2995;-31.998;115.906;2022-08-19T04:19:57;17.20;99.90
5940;DHT22;2995;-31.998;115.906;2022-08-19T04:22:29;17.20;99.90
5940;DHT22;2995;-31.998;115.906;2022-08-19T04:25:00;17.20;99.90
5940;DHT22;2995;-31.998;115.906;2022-08-19T04:27:34;17.10;99.90
5940;DHT22;2995;-31.998;115.906;2022-08-19T04:30:05;17.10;99.90
5940;DHT22;2995;-31.998;115.906;2022-08-19T04:32:37;17.30;99.90
5940;DHT22;2995;-31.998;115.906;2022-08-19T04:35:08;17.30;99.90
5940;DHT22;2995;-31.998;115.906;2022-08-19T04:37:40;17.40;99.90
5940;DHT22;2995;-31.998;115.906;2022-08-19T04:40:11;17.40;99.90
5940;DHT22;2995;-31.998;115.906;2022-08-19T04:43:01;17.50;99.90
5940;DHT22;2995;-31.998;115.906;2022-08-19T04:45:32;17.50;99.90
5940;DHT22;2995;-31.998;115.906;2022-08-19T04:48:04;17.50;99.90
5940;DHT22;2995;-31.998;115.906;2022-08-19T04:50:35;17.50;99.90
5940;DHT22;2995;-31.998;115.906;2022-08-19T04:53:06;17.50;99.90
5940;DHT22;2995;-31.998;115.906;2022-08-19T04:55:41;17.50;99.90
5940;DHT22;2995;-31.998;115.906;2022-08-19T04:58:14;17.60;99.90
5940;DHT22;2995;-31.998;115.906;2022-08-19T05:00:46;17.80;99.90
5940;DHT22;2995;-31.998;115.906;2022-08-19T05:03:18;17.80;99.90
5940;DHT22;2995;-31.998;115.906;2022-08-19T05:05:50;17.80;99.90
5940;DHT22;2995;-31.998;115.906;2022-08-19T05:08:22;17.90;99.90
5940;DHT22;2995;-31.998;115.906;2022-08-19T05:10:53;17.80;99.90
5940;DHT22;2995;-31.998;115.906;2022-08-19T05:13:27;17.80;99.90
5940;DHT22;2995;-31.998;115.906;2022-08-19T05:16:00;17.90;99.90
5940;DHT22;2995;-31.998;115.906;2022-08-19T05:18:31;18.00;99.90
5940;DHT22;2995;-31.998;115.906;2022-08-19T05:21:19;18.00;99.90
5940;DHT22;2995;-31.998;115.906;2022-08-19T05:24:11;18.00;99.90
5940;DHT22;2995;-31.998;115.906;2022-08-19T05:26:44;18.00;99.90
5940;DHT22;2995;-31.998;115.906;2022-08-19T05:29:20;18.00;99.90
5940;DHT22;2995;-31.998;115.906;2022-08-19T05:31:53;18.00;99.90
5940;DHT22;2995;-31.998;115.906;2022-08-19T05:34:25;18.00;99.90
5940;DHT22;2995;-31.998;115.906;2022-08-19T05:36:58;18.00;99.90
5940;DHT22;2995;-31.998;115.906;2022-08-19T05:39:31;18.00;99.90
5940;DHT22;2995;-31.998;115.906;2022-08-19T05:42:05;18.00;99.90
5940;DHT22;2995;-31.998;115.906;2022-08-19T05:44:40;18.00;99.90
5940;DHT22;2995;-31.998;115.906;2022-08-19T05:47:13;18.20;99.90
5940;DHT22;2995;-31.998;115.906;2022-08-19T05:49:45;18.40;99.90
5940;DHT22;2995;-31.998;115.906;2022-08-19T05:52:18;18.40;99.90
5940;DHT22;2995;-31.998;115.906;2022-08-19T05:54:50;18.40;99.90
5940;DHT22;2995;-31.998;115.906;2022-08-19T05:57:23;18.40;99.90
5940;DHT22;2995;-31.998;115.906;2022-08-19T05:59:56;18.40;99.90
5940;DHT22;2995;-31.998;115.906;2022-08-19T06:02:30;18.50;99.90
5940;DHT22;2995;-31.998;115.906;2022-08-19T06:05:01;18.50;99.90
5940;DHT22;2995;-31.998;115.906;2022-08-19T06:07:34;18.50;99.90
5940;DHT22;2995;-31.998;115.906;2022-08-19T06:10:07;18.40;99.90
5940;DHT22;2995;-31.998;115.906;2022-08-19T06:12:39;18.50;99.90
5940;DHT22;2995;-31.998;115.906;2022-08-19T06:15:13;18.50;99.90
5940;DHT22;2995;-31.998;115.906;2022-08-19T06:17:47;18.50;99.90
5940;DHT22;2995;-31.998;115.906;2022-08-19T06:20:19;18.40;99.90
5940;DHT22;2995;-31.998;115.906;2022-08-19T06:22:50;18.40;99.90
5940;DHT22;2995;-31.998;115.906;2022-08-19T06:25:22;18.40;99.90
5940;DHT22;2995;-31.998;115.906;2022-08-19T06:27:53;18.60;99.90
5940;DHT22;2995;-31.998;115.906;2022-08-19T06:30:27;18.70;99.90
5940;DHT22;2995;-31.998;115.906;2022-08-19T06:32:59;18.80;99.90
5940;DHT22;2995;-31.998;115.906;2022-08-19T06:35:30;18.70;99.90
5940;DHT22;2995;-31.998;115.906;2022-08-19T06:38:01;18.70;99.90
5940;DHT22;2995;-31.998;115.906;2022-08-19T06:40:33;18.70;99.90
5940;DHT22;2995;-31.998;115.906;2022-08-19T06:43:05;18.70;99.90
5940;DHT22;2995;-31.998;115.906;2022-08-19T06:45:40;18.90;99.90
5940;DHT22;2995;-31.998;115.906;2022-08-19T06:48:11;18.90;99.90
5940;DHT22;2995;-31.998;115.906;2022-08-19T06:50:42;18.90;99.90
5940;DHT22;2995;-31.998;115.906;2022-08-19T06:53:14;18.80;99.90
5940;DHT22;2995;-31.998;115.906;2022-08-19T06:55:45;18.80;99.90
5940;DHT22;2995;-31.998;115.906;2022-08-19T06:58:30;18.60;99.90
5940;DHT22;2995;-31.998;115.906;2022-08-19T07:01:04;18.50;99.90
5940;DHT22;2995;-31.998;115.906;2022-08-19T07:03:37;18.50;99.90
5940;DHT22;2995;-31.998;115.906;2022-08-19T07:06:12;18.50;99.90
5940;DHT22;2995;-31.998;115.906;2022-08-19T07:08:46;18.40;99.90
5940;DHT22;2995;-31.998;115.906;2022-08-19T07:11:19;18.40;99.90
5940;DHT22;2995;-31.998;115.906;2022-08-19T07:13:50;18.40;99.90
5940;DHT22;2995;-31.998;115.906;2022-08-19T07:16:24;18.40;99.90
5940;DHT22;2995;-31.998;115.906;2022-08-19T07:18:57;18.20;99.90
5940;DHT22;2995;-31.998;115.906;2022-08-19T07:21:29;18.30;99.90
5940;DHT22;2995;-31.998;115.906;2022-08-19T07:24:01;18.30;99.90
5940;DHT22;2995;-31.998;115.906;2022-08-19T07:26:35;18.30;99.90
5940;DHT22;2995;-31.998;115.906;2022-08-19T07:29:09;18.30;99.90
5940;DHT22;2995;-31.998;115.906;2022-08-19T07:31:42;18.20;99.90
5940;DHT22;2995;-31.998;115.906;2022-08-19T07:34:14;18.30;99.90
5940;DHT22;2995;-31.998;115.906;2022-08-19T07:36:45;18.40;99.90
5940;DHT22;2995;-31.998;115.906;2022-08-19T07:39:22;18.30;99.90
5940;DHT22;2995;-31.998;115.906;2022-08-19T07:41:55;18.30;99.90
5940;DHT22;2995;-31.998;115.906;2022-08-19T07:44:26;18.30;99.90
5940;DHT22;2995;-31.998;115.906;2022-08-19T07:47:00;18.30;99.90
5940;DHT22;2995;-31.998;115.906;2022-08-19T07:49:32;18.30;99.90
5940;DHT22;2995;-31.998;115.906;2022-08-19T07:52:06;18.30;99.90
5940;DHT22;2995;-31.998;115.906;2022-08-19T07:54:39;18.30;99.90
5940;DHT22;2995;-31.998;115.906;2022-08-19T07:57:11;18.30;99.90
5940;DHT22;2995;-31.998;115.906;2022-08-19T07:59:42;18.20;99.90
5940;DHT22;2995;-31.998;115.906;2022-08-19T08:02:15;18.20;99.90
5940;DHT22;2995;-31.998;115.906;2022-08-19T08:04:46;18.20;99.90
5940;DHT22;2995;-31.998;115.906;2022-08-19T08:07:33;18.20;99.90
5940;DHT22;2995;-31.998;115.906;2022-08-19T08:10:29;18.10;99.90
5940;DHT22;2995;-31.998;115.906;2022-08-19T08:13:00;18.10;99.90
5940;DHT22;2995;-31.998;115.906;2022-08-19T08:15:33;18.20;99.90
5940;DHT22;2995;-31.998;115.906;2022-08-19T08:18:07;18.20;99.90
5940;DHT22;2995;-31.998;115.906;2022-08-19T08:20:38;18.20;99.90
5940;DHT22;2995;-31.998;115.906;2022-08-19T08:23:09;18.20;99.90
5940;DHT22;2995;-31.998;115.906;2022-08-19T08:25:54;18.20;99.90
5940;DHT22;2995;-31.998;115.906;2022-08-19T08:28:26;18.20;99.90
5940;DHT22;2995;-31.998;115.906;2022-08-19T08:30:58;18.20;99.90
5940;DHT22;2995;-31.998;115.906;2022-08-19T08:33:32;18.10;99.90
5940;DHT22;2995;-31.998;115.906;2022-08-19T08:36:04;18.00;99.90
5940;DHT22;2995;-31.998;115.906;2022-08-19T08:38:38;17.90;99.90
5940;DHT22;2995;-31.998;115.906;2022-08-19T08:41:17;17.90;99.90
5940;DHT22;2995;-31.998;115.906;2022-08-19T08:43:51;17.90;99.90
5940;DHT22;2995;-31.998;115.906;2022-08-19T08:46:26;17.90;99.90
5940;DHT22;2995;-31.998;115.906;2022-08-19T08:49:07;17.90;99.90
5940;DHT22;2995;-31.998;115.906;2022-08-19T08:53:39;17.80;99.90
5940;DHT22;2995;-31.998;115.906;2022-08-19T08:56:12;17.70;99.90
5940;DHT22;2995;-31.998;115.906;2022-08-19T08:58:49;17.70;99.90
5940;DHT22;2995;-31.998;115.906;2022-08-19T09:01:22;17.60;99.90
5940;DHT22;2995;-31.998;115.906;2022-08-19T09:03:54;17.50;99.90
5940;DHT22;2995;-31.998;115.906;2022-08-19T09:06:32;17.50;99.90
5940;DHT22;2995;-31.998;115.906;2022-08-19T09:09:17;17.50;99.90
5940;DHT22;2995;-31.998;115.906;2022-08-19T09:12:00;17.50;99.90
5940;DHT22;2995;-31.998;115.906;2022-08-19T09:14:39;17.60;99.90
5940;DHT22;2995;-31.998;115.906;2022-08-19T09:17:15;17.50;99.90
5940;DHT22;2995;-31.998;115.906;2022-08-19T09:19:58;17.50;99.90
5940;DHT22;2995;-31.998;115.906;2022-08-19T09:22:33;17.40;99.90
5940;DHT22;2995;-31.998;115.906;2022-08-19T09:25:08;17.50;99.90
5940;DHT22;2995;-31.998;115.906;2022-08-19T09:27:41;17.40;99.90
5940;DHT22;2995;-31.998;115.906;2022-08-19T09:30:15;17.30;99.90
5940;DHT22;2995;-31.998;115.906;2022-08-19T09:32:48;17.30;99.90
5940;DHT22;2995;-31.998;115.906;2022-08-19T09:35:21;17.20;99.90
5940;DHT22;2995;-31.998;115.906;2022-08-19T09:37:53;17.10;99.90
5940;DHT22;2995;-31.998;115.906;2022-08-19T09:40:28;17.10;99.90
5940;DHT22;2995;-31.998;115.906;2022-08-19T09:42:59;17.00;99.90
5940;DHT22;2995;-31.998;115.906;2022-08-19T09:45:31;16.90;99.90
5940;DHT22;2995;-31.998;115.906;2022-08-19T09:48:03;16.90;99.90
5940;DHT22;2995;-31.998;115.906;2022-08-19T09:50:34;16.90;99.90
5940;DHT22;2995;-31.998;115.906;2022-08-19T09:53:06;16.80;99.90
5940;DHT22;2995;-31.998;115.906;2022-08-19T09:55:42;16.80;99.90
5940;DHT22;2995;-31.998;115.906;2022-08-19T09:58:14;16.70;99.90
5940;DHT22;2995;-31.998;115.906;2022-08-19T10:00:45;16.70;99.90
5940;DHT22;2995;-31.998;115.906;2022-08-19T10:03:16;16.70;99.90
5940;DHT22;2995;-31.998;115.906;2022-08-19T10:05:48;16.70;99.90
5940;DHT22;2995;-31.998;115.906;2022-08-19T10:08:21;16.70;99.90
5940;DHT22;2995;-31.998;115.906;2022-08-19T10:10:56;16.60;99.90
5940;DHT22;2995;-31.998;115.906;2022-08-19T10:13:29;16.60;99.90
5940;DHT22;2995;-31.998;115.906;2022-08-19T10:16:06;16.50;99.90
5940;DHT22;2995;-31.998;115.906;2022-08-19T10:18:38;16.50;99.90
5940;DHT22;2995;-31.998;115.906;2022-08-19T10:21:13;16.50;99.90
5940;DHT22;2995;-31.998;115.906;2022-08-19T10:23:50;16.50;99.90
5940;DHT22;2995;-31.998;115.906;2022-08-19T10:26:25;16.50;99.90
5940;DHT22;2995;-31.998;115.906;2022-08-19T10:28:57;16.50;99.90
5940;DHT22;2995;-31.998;115.906;2022-08-19T10:31:30;16.50;99.90
5940;DHT22;2995;-31.998;115.906;2022-08-19T10:34:02;16.40;99.90
5940;DHT22;2995;-31.998;115.906;2022-08-19T10:36:34;16.40;99.90
5940;DHT22;2995;-31.998;115.906;2022-08-19T10:39:08;16.40;99.90
5940;DHT22;2995;-31.998;115.906;2022-08-19T10:41:42;16.40;99.90
5940;DHT22;2995;-31.998;115.906;2022-08-19T10:44:14;16.40;99.90
5940;DHT22;2995;-31.998;115.906;2022-08-19T10:46:46;16.40;99.90
5940;DHT22;2995;-31.998;115.906;2022-08-19T10:49:17;16.30;99.90
5940;DHT22;2995;-31.998;115.906;2022-08-19T10:51:49;16.30;99.90
5940;DHT22;2995;-31.998;115.906;2022-08-19T10:54:36;16.30;99.90
5940;DHT22;2995;-31.998;115.906;2022-08-19T10:57:24;16.30;99.90
5940;DHT22;2995;-31.998;115.906;2022-08-19T10:59:57;16.30;99.90
5940;DHT22;2995;-31.998;115.906;2022-08-19T11:02:28;16.30;99.90
5940;DHT22;2995;-31.998;115.906;2022-08-19T11:05:00;16.30;99.90
5940;DHT22;2995;-31.998;115.906;2022-08-19T11:07:32;16.30;99.90
5940;DHT22;2995;-31.998;115.906;2022-08-19T11:10:04;16.30;99.90
5940;DHT22;2995;-31.998;115.906;2022-08-19T11:12:38;16.20;99.90
5940;DHT22;2995;-31.998;115.906;2022-08-19T11:15:10;16.20;99.90
5940;DHT22;2995;-31.998;115.906;2022-08-19T11:17:41;16.20;99.90
5940;DHT22;2995;-31.998;115.906;2022-08-19T11:20:13;16.20;99.90
5940;DHT22;2995;-31.998;115.906;2022-08-19T11:22:45;16.20;99.90
5940;DHT22;2995;-31.998;115.906;2022-08-19T11:25:16;16.20;99.90
5940;DHT22;2995;-31.998;115.906;2022-08-19T11:27:49;16.10;99.90
5940;DHT22;2995;-31.998;115.906;2022-08-19T11:30:21;16.10;99.90
5940;DHT22;2995;-31.998;115.906;2022-08-19T11:32:52;16.10;99.90
5940;DHT22;2995;-31.998;115.906;2022-08-19T11:35:24;16.10;99.90
5940;DHT22;2995;-31.998;115.906;2022-08-19T11:37:56;16.10;99.90
5940;DHT22;2995;-31.998;115.906;2022-08-19T11:40:29;16.10;99.90
5940;DHT22;2995;-31.998;115.906;2022-08-19T11:43:03;16.10;99.90
5940;DHT22;2995;-31.998;115.906;2022-08-19T11:45:34;16.00;99.90
5940;DHT22;2995;-31.998;115.906;2022-08-19T11:48:05;16.00;99.90
5940;DHT22;2995;-31.998;115.906;2022-08-19T11:50:37;16.00;99.90
5940;DHT22;2995;-31.998;115.906;2022-08-19T11:53:11;15.90;99.90
5940;DHT22;2995;-31.998;115.906;2022-08-19T11:55:42;15.90;99.90
5940;DHT22;2995;-31.998;115.906;2022-08-19T11:58:16;15.90;99.90
5940;DHT22;2995;-31.998;115.906;2022-08-19T12:00:48;15.90;99.90
5940;DHT22;2995;-31.998;115.906;2022-08-19T12:03:19;15.90;99.90
5940;DHT22;2995;-31.998;115.906;2022-08-19T12:05:51;15.80;99.90
5940;DHT22;2995;-31.998;115.906;2022-08-19T12:08:22;15.80;99.90
5940;DHT22;2995;-31.998;115.906;2022-08-19T12:10:53;15.80;99.90
5940;DHT22;2995;-31.998;115.906;2022-08-19T12:13:27;15.80;99.90
5940;DHT22;2995;-31.998;115.906;2022-08-19T12:15:58;15.70;99.90
5940;DHT22;2995;-31.998;115.906;2022-08-19T12:18:30;15.70;99.90
5940;DHT22;2995;-31.998;115.906;2022-08-19T12:21:02;15.70;99.90
5940;DHT22;2995;-31.998;115.906;2022-08-19T12:23:36;15.70;99.90
5940;DHT22;2995;-31.998;115.906;2022-08-19T12:26:09;15.60;99.90
5940;DHT22;2995;-31.998;115.906;2022-08-19T12:28:42;15.60;99.90
5940;DHT22;2995;-31.998;115.906;2022-08-19T12:31:14;15.60;99.90
5940;DHT22;2995;-31.998;115.906;2022-08-19T12:33:46;15.60;99.90
5940;DHT22;2995;-31.998;115.906;2022-08-19T12:36:17;15.60;99.90
5940;DHT22;2995;-31.998;115.906;2022-08-19T12:38:50;15.60;99.90
5940;DHT22;2995;-31.998;115.906;2022-08-19T12:41:22;15.50;99.90
5940;DHT22;2995;-31.998;115.906;2022-08-19T12:43:55;15.50;99.90
5940;DHT22;2995;-31.998;115.906;2022-08-19T12:46:26;15.50;99.90
5940;DHT22;2995;-31.998;115.906;2022-08-19T12:48:59;15.50;99.90
5940;DHT22;2995;-31.998;115.906;2022-08-19T12:51:31;15.40;99.90
5940;DHT22;2995;-31.998;115.906;2022-08-19T12:54:02;15.30;99.90
5940;DHT22;2995;-31.998;115.906;2022-08-19T12:56:34;15.30;99.90
5940;DHT22;2995;-31.998;115.906;2022-08-19T12:59:09;15.30;99.90
5940;DHT22;2995;-31.998;115.906;2022-08-19T13:01:40;15.30;99.90
5940;DHT22;2995;-31.998;115.906;2022-08-19T13:04:11;15.30;99.90
5940;DHT22;2995;-31.998;115.906;2022-08-19T13:06:43;15.30;99.90
5940;DHT22;2995;-31.998;115.906;2022-08-19T13:09:14;15.30;99.90
5940;DHT22;2995;-31.998;115.906;2022-08-19T13:11:45;15.30;99.90
5940;DHT22;2995;-31.998;115.906;2022-08-19T13:14:19;15.20;99.90
5940;DHT22;2995;-31.998;115.906;2022-08-19T13:16:50;15.20;99.90
5940;DHT22;2995;-31.998;115.906;2022-08-19T13:19:21;15.10;99.90
5940;DHT22;2995;-31.998;115.906;2022-08-19T13:21:53;15.10;99.90
5940;DHT22;2995;-31.998;115.906;2022-08-19T13:24:26;15.10;99.90
5940;DHT22;2995;-31.998;115.906;2022-08-19T13:26:57;15.10;99.90
5940;DHT22;2995;-31.998;115.906;2022-08-19T13:29:30;15.10;99.90
5940;DHT22;2995;-31.998;115.906;2022-08-19T13:32:17;15.00;99.90
5940;DHT22;2995;-31.998;115.906;2022-08-19T13:35:04;15.00;99.90
5940;DHT22;2995;-31.998;115.906;2022-08-19T13:37:36;15.00;99.90
5940;DHT22;2995;-31.998;115.906;2022-08-19T13:40:14;14.90;99.90
5940;DHT22;2995;-31.998;115.906;2022-08-19T13:42:48;14.90;99.90
5940;DHT22;2995;-31.998;115.906;2022-08-19T13:45:23;14.90;99.90
5940;DHT22;2995;-31.998;115.906;2022-08-19T13:47:56;14.90;99.90
5940;DHT22;2995;-31.998;115.906;2022-08-19T13:50:29;14.90;99.90
5940;DHT22;2995;-31.998;115.906;2022-08-19T13:53:01;14.90;99.90
5940;DHT22;2995;-31.998;115.906;2022-08-19T13:55:32;14.80;99.90
5940;DHT22;2995;-31.998;115.906;2022-08-19T13:58:04;14.80;99.90
5940;DHT22;2995;-31.998;115.906;2022-08-19T14:00:44;14.80;99.90
5940;DHT22;2995;-31.998;115.906;2022-08-19T14:03:16;14.70;99.90
5940;DHT22;2995;-31.998;115.906;2022-08-19T14:05:47;14.70;99.90
5940;DHT22;2995;-31.998;115.906;2022-08-19T14:08:19;14.70;99.90
5940;DHT22;2995;-31.998;115.906;2022-08-19T14:10:50;14.70;99.90
5940;DHT22;2995;-31.998;115.906;2022-08-19T14:13:23;14.70;99.90
5940;DHT22;2995;-31.998;115.906;2022-08-19T14:15:56;14.70;99.90
5940;DHT22;2995;-31.998;115.906;2022-08-19T14:18:27;14.60;99.90
5940;DHT22;2995;-31.998;115.906;2022-08-19T14:20:59;14.60;99.90
5940;DHT22;2995;-31.998;115.906;2022-08-19T14:23:31;14.50;99.90
5940;DHT22;2995;-31.998;115.906;2022-08-19T14:26:06;14.50;99.90
5940;DHT22;2995;-31.998;115.906;2022-08-19T14:28:37;14.50;99.90
5940;DHT22;2995;-31.998;115.906;2022-08-19T14:31:12;14.50;99.90
5940;DHT22;2995;-31.998;115.906;2022-08-19T14:33:47;14.50;99.90
5940;DHT22;2995;-31.998;115.906;2022-08-19T14:36:19;14.40;99.90
5940;DHT22;2995;-31.998;115.906;2022-08-19T14:38:50;14.30;99.90
5940;DHT22;2995;-31.998;115.906;2022-08-19T14:41:23;14.20;99.90
5940;DHT22;2995;-31.998;115.906;2022-08-19T14:43:55;14.10;99.90
5940;DHT22;2995;-31.998;115.906;2022-08-19T14:46:30;14.10;99.90
5940;DHT22;2995;-31.998;115.906;2022-08-19T14:49:01;14.00;99.90
5940;DHT22;2995;-31.998;115.906;2022-08-19T14:51:33;14.00;99.90
5940;DHT22;2995;-31.998;115.906;2022-08-19T14:54:04;14.00;99.90
5940;DHT22;2995;-31.998;115.906;2022-08-19T14:56:35;14.00;99.90
5940;DHT22;2995;-31.998;115.906;2022-08-19T14:59:06;14.10;99.90
5940;DHT22;2995;-31.998;115.906;2022-08-19T15:01:40;14.00;99.90
5940;DHT22;2995;-31.998;115.906;2022-08-19T15:04:11;14.00;99.90
5940;DHT22;2995;-31.998;115.906;2022-08-19T15:06:42;13.90;99.90
5940;DHT22;2995;-31.998;115.906;2022-08-19T15:09:14;13.80;99.90
5940;DHT22;2995;-31.998;115.906;2022-08-19T15:11:45;13.70;99.90
5940;DHT22;2995;-31.998;115.906;2022-08-19T15:14:17;13.70;99.90
5940;DHT22;2995;-31.998;115.906;2022-08-19T15:16:50;13.60;99.90
5940;DHT22;2995;-31.998;115.906;2022-08-19T15:19:22;13.60;99.90
5940;DHT22;2995;-31.998;115.906;2022-08-19T15:21:53;13.50;99.90
5940;DHT22;2995;-31.998;115.906;2022-08-19T15:24:25;13.50;99.90
5940;DHT22;2995;-31.998;115.906;2022-08-19T15:26:56;13.40;99.90
5940;DHT22;2995;-31.998;115.906;2022-08-19T15:29:28;13.40;99.90
5940;DHT22;2995;-31.998;115.906;2022-08-19T15:32:01;13.30;99.90
5940;DHT22;2995;-31.998;115.906;2022-08-19T15:34:34;13.30;99.90
5940;DHT22;2995;-31.998;115.906;2022-08-19T15:37:05;13.20;99.90
5940;DHT22;2995;-31.998;115.906;2022-08-19T15:39:37;13.20;99.90
5940;DHT22;2995;-31.998;115.906;2022-08-19T15:42:08;13.20;99.90
5940;DHT22;2995;-31.998;115.906;2022-08-19T15:44:39;13.10;99.90
5940;DHT22;2995;-31.998;115.906;2022-08-19T15:47:13;13.10;99.90
5940;DHT22;2995;-31.998;115.906;2022-08-19T15:49:46;13.00;99.90
5940;DHT22;2995;-31.998;115.906;2022-08-19T15:52:20;13.00;99.90